sensor_id;sensor_type;location;lat;lon;timestamp;temperature;humidity
15105;DHT22;7653;48.994;9.212;2023-04-24T00:00:04;11.60;60.40
15105;DHT22;7653;48.994;9.212;2023-04-24T00:02:38;11.70;58.30
15105;DHT22;7653;48.994;9.212;2023-04-24T00:05:05;11.90;56.90
15105;DHT22;7653;48.994;9.212;2023-04-24T00:07:31;11.90;56.90
15105;DHT22;7653;48.994;9.212;2023-04-24T00:09:57;11.90;56.10
15105;DHT22;7653;48.994;9.212;2023-04-24T00:12:23;11.90;56.30
15105;DHT22;7653;48.994;9.212;2023-04-24T00:14:49;12.00;55.50
15105;DHT22;7653;48.994;9.212;2023-04-24T00:17:14;12.00;54.50
15105;DHT22;7653;48.994;9.212;2023-04-24T00:19:40;12.10;54.10
15105;DHT22;7653;48.994;9.212;2023-04-24T00:22:06;12.00;54.70
15105;DHT22;7653;48.994;9.212;2023-04-24T00:24:32;12.00;55.20
15105;DHT22;7653;48.994;9.212;2023-04-24T00:26:58;11.90;56.40
15105;DHT22;7653;48.994;9.212;2023-04-24T00:29:24;11.90;55.20
15105;DHT22;7653;48.994;9.212;2023-04-24T00:31:50;11.90;56.10
15105;DHT22;7653;48.994;9.212;2023-04-24T00:34:16;11.90;54.60
15105;DHT22;7653;48.994;9.212;2023-04-24T00:36:41;12.00;54.00
15105;DHT22;7653;48.994;9.212;2023-04-24T00:39:07;12.00;53.80
15105;DHT22;7653;48.994;9.212;2023-04-24T00:41:34;12.00;55.50
15105;DHT22;7653;48.994;9.212;2023-04-24T00:44:00;12.00;55.10
15105;DHT22;7653;48.994;9.212;2023-04-24T00:46:25;11.90;55.80
15105;DHT22;7653;48.994;9.212;2023-04-24T00:48:51;11.80;56.50
15105;DHT22;7653;48.994;9.212;2023-04-24T00:51:17;11.80;56.70
15105;DHT22;7653;48.994;9.212;2023-04-24T00:53:43;11.80;56.90
15105;DHT22;7653;48.994;9.212;2023-04-24T00:56:09;11.80;56.70
15105;DHT22;7653;48.994;9.212;2023-04-24T00:58:35;11.90;56.20
15105;DHT22;7653;48.994;9.212;2023-04-24T01:01:01;11.90;56.00
15105;DHT22;7653;48.994;9.212;2023-04-24T01:03:29;12.00;56.70
15105;DHT22;7653;48.994;9.212;2023-04-24T01:05:57;11.90;56.10
15105;DHT22;7653;48.994;9.212;2023-04-24T01:08:24;11.90;55.80
15105;DHT22;7653;48.994;9.212;2023-04-24T01:10:52;11.90;55.60
15105;DHT22;7653;48.994;9.212;2023-04-24T01:13:20;12.00;55.70
15105;DHT22;7653;48.994;9.212;2023-04-24T01:15:46;11.90;55.80
15105;DHT22;7653;48.994;9.212;2023-04-24T01:18:13;12.00;55.70
15105;DHT22;7653;48.994;9.212;2023-04-24T01:20:42;12.00;55.80
15105;DHT22;7653;48.994;9.212;2023-04-24T01:23:10;12.00;55.90
15105;DHT22;7653;48.994;9.212;2023-04-24T01:25:37;12.00;56.10
15105;DHT22;7653;48.994;9.212;2023-04-24T01:28:03;12.00;56.40
15105;DHT22;7653;48.994;9.212;2023-04-24T01:30:29;11.90;56.30
15105;DHT22;7653;48.994;9.212;2023-04-24T01:32:55;11.90;56.10
15105;DHT22;7653;48.994;9.212;2023-04-24T01:35:21;11.90;55.30
15105;DHT22;7653;48.994;9.212;2023-04-24T01:37:47;11.80;55.20
15105;DHT22;7653;48.994;9.212;2023-04-24T01:40:13;11.80;54.40
15105;DHT22;7653;48.994;9.212;2023-04-24T01:42:41;11.80;54.20
15105;DHT22;7653;48.994;9.212;2023-04-24T01:45:09;11.80;53.70
15105;DHT22;7653;48.994;9.212;2023-04-24T01:47:35;11.80;54.00
15105;DHT22;7653;48.994;9.212;2023-04-24T01:50:01;11.80;54.00
15105;DHT22;7653;48.994;9.212;2023-04-24T01:52:27;11.70;54.30
15105;DHT22;7653;48.994;9.212;2023-04-24T01:54:56;11.70;55.20
15105;DHT22;7653;48.994;9.212;2023-04-24T01:57:24;11.60;55.00
15105;DHT22;7653;48.994;9.212;2023-04-24T01:59:51;11.60;55.80
15105;DHT22;7653;48.994;9.212;2023-04-24T02:02:17;11.50;56.00
15105;DHT22;7653;48.994;9.212;2023-04-24T02:04:43;11.50;56.20
15105;DHT22;7653;48.994;9.212;2023-04-24T02:07:08;11.50;56.60
15105;DHT22;7653;48.994;9.212;2023-04-24T02:09:34;11.40;56.30
15105;DHT22;7653;48.994;9.212;2023-04-24T02:11:59;11.40;56.00
15105;DHT22;7653;48.994;9.212;2023-04-24T02:14:26;11.40;56.90
15105;DHT22;7653;48.994;9.212;2023-04-24T02:16:51;11.40;57.20
15105;DHT22;7653;48.994;9.212;2023-04-24T02:19:18;11.30;58.40
15105;DHT22;7653;48.994;9.212;2023-04-24T02:21:44;11.20;59.30
15105;DHT22;7653;48.994;9.212;2023-04-24T02:24:10;11.20;59.60
15105;DHT22;7653;48.994;9.212;2023-04-24T02:26:35;11.30;59.80
15105;DHT22;7653;48.994;9.212;2023-04-24T02:29:01;11.30;59.20
15105;DHT22;7653;48.994;9.212;2023-04-24T02:31:27;11.40;58.90
15105;DHT22;7653;48.994;9.212;2023-04-24T02:33:52;11.40;59.10
15105;DHT22;7653;48.994;9.212;2023-04-24T02:36:18;11.40;58.80
15105;DHT22;7653;48.994;9.212;2023-04-24T02:38:43;11.50;59.60
15105;DHT22;7653;48.994;9.212;2023-04-24T02:41:09;11.50;61.20
15105;DHT22;7653;48.994;9.212;2023-04-24T02:43:35;11.50;60.40
15105;DHT22;7653;48.994;9.212;2023-04-24T02:46:00;11.50;60.50
15105;DHT22;7653;48.994;9.212;2023-04-24T02:48:26;11.60;59.40
15105;DHT22;7653;48.994;9.212;2023-04-24T02:50:52;11.60;59.00
15105;DHT22;7653;48.994;9.212;2023-04-24T02:53:18;11.50;59.30
15105;DHT22;7653;48.994;9.212;2023-04-24T02:55:44;11.50;59.30
15105;DHT22;7653;48.994;9.212;2023-04-24T02:58:10;11.50;59.60
15105;DHT22;7653;48.994;9.212;2023-04-24T03:00:38;11.50;59.80
15105;DHT22;7653;48.994;9.212;2023-04-24T03:03:04;11.50;60.80
15105;DHT22;7653;48.994;9.212;2023-04-24T03:05:29;11.40;61.10
15105;DHT22;7653;48.994;9.212;2023-04-24T03:07:56;11.50;61.20
15105;DHT22;7653;48.994;9.212;2023-04-24T03:10:22;11.50;60.60
15105;DHT22;7653;48.994;9.212;2023-04-24T03:12:50;11.40;61.50
15105;DHT22;7653;48.994;9.212;2023-04-24T03:15:16;11.30;63.50
15105;DHT22;7653;48.994;9.212;2023-04-24T03:17:42;11.30;65.00
15105;DHT22;7653;48.994;9.212;2023-04-24T03:20:08;11.20;66.50
15105;DHT22;7653;48.994;9.212;2023-04-24T03:22:34;11.10;67.60
15105;DHT22;7653;48.994;9.212;2023-04-24T03:25:00;11.10;68.30
15105;DHT22;7653;48.994;9.212;2023-04-24T03:27:26;11.10;69.30
15105;DHT22;7653;48.994;9.212;2023-04-24T03:29:52;11.10;69.50
15105;DHT22;7653;48.994;9.212;2023-04-24T03:32:23;11.10;70.50
15105;DHT22;7653;48.994;9.212;2023-04-24T03:34:49;11.20;69.40
15105;DHT22;7653;48.994;9.212;2023-04-24T03:37:16;11.20;68.50
15105;DHT22;7653;48.994;9.212;2023-04-24T03:39:42;11.30;68.30
15105;DHT22;7653;48.994;9.212;2023-04-24T03:42:07;11.30;68.50
15105;DHT22;7653;48.994;9.212;2023-04-24T03:44:34;11.30;69.10
15105;DHT22;7653;48.994;9.212;2023-04-24T03:47:00;11.30;70.50
15105;DHT22;7653;48.994;9.212;2023-04-24T03:49:25;11.30;69.40
15105;DHT22;7653;48.994;9.212;2023-04-24T03:51:51;11.30;69.40
15105;DHT22;7653;48.994;9.212;2023-04-24T03:54:18;11.30;69.70
15105;DHT22;7653;48.994;9.212;2023-04-24T03:56:44;11.30;70.30
15105;DHT22;7653;48.994;9.212;2023-04-24T03:59:09;11.40;70.30
15105;DHT22;7653;48.994;9.212;2023-04-24T04:01:35;11.40;69.50
15105;DHT22;7653;48.994;9.212;2023-04-24T04:04:05;11.50;69.30
15105;DHT22;7653;48.994;9.212;2023-04-24T04:06:31;11.60;69.30
15105;DHT22;7653;48.994;9.212;2023-04-24T04:08:57;11.50;71.10
15105;DHT22;7653;48.994;9.212;2023-04-24T04:11:23;11.40;74.80
15105;DHT22;7653;48.994;9.212;2023-04-24T04:13:49;11.20;73.70
15105;DHT22;7653;48.994;9.212;2023-04-24T04:16:15;11.20;78.40
15105;DHT22;7653;48.994;9.212;2023-04-24T04:18:44;11.00;81.40
15105;DHT22;7653;48.994;9.212;2023-04-24T04:21:10;10.80;79.50
15105;DHT22;7653;48.994;9.212;2023-04-24T04:23:36;10.70;81.70
15105;DHT22;7653;48.994;9.212;2023-04-24T04:26:02;10.50;76.90
15105;DHT22;7653;48.994;9.212;2023-04-24T04:28:29;10.30;79.10
15105;DHT22;7653;48.994;9.212;2023-04-24T04:30:56;10.30;81.20
15105;DHT22;7653;48.994;9.212;2023-04-24T04:33:23;10.20;82.60
15105;DHT22;7653;48.994;9.212;2023-04-24T04:35:49;10.20;82.40
15105;DHT22;7653;48.994;9.212;2023-04-24T04:38:15;10.10;84.40
15105;DHT22;7653;48.994;9.212;2023-04-24T04:40:42;10.10;84.60
15105;DHT22;7653;48.994;9.212;2023-04-24T04:43:08;10.10;83.10
15105;DHT22;7653;48.994;9.212;2023-04-24T04:45:33;10.00;85.90
15105;DHT22;7653;48.994;9.212;2023-04-24T04:48:00;10.00;84.40
15105;DHT22;7653;48.994;9.212;2023-04-24T04:50:27;10.10;85.50
15105;DHT22;7653;48.994;9.212;2023-04-24T04:52:53;10.00;83.80
15105;DHT22;7653;48.994;9.212;2023-04-24T04:55:18;10.00;85.50
15105;DHT22;7653;48.994;9.212;2023-04-24T04:57:47;9.90;87.00
15105;DHT22;7653;48.994;9.212;2023-04-24T05:00:13;9.90;85.00
15105;DHT22;7653;48.994;9.212;2023-04-24T05:02:39;9.90;85.60
15105;DHT22;7653;48.994;9.212;2023-04-24T05:05:06;10.00;85.40
15105;DHT22;7653;48.994;9.212;2023-04-24T05:07:32;10.00;84.40
15105;DHT22;7653;48.994;9.212;2023-04-24T05:09:58;10.00;84.70
15105;DHT22;7653;48.994;9.212;2023-04-24T05:12:23;10.00;82.60
15105;DHT22;7653;48.994;9.212;2023-04-24T05:14:49;10.00;84.10
15105;DHT22;7653;48.994;9.212;2023-04-24T05:17:15;9.90;85.50
15105;DHT22;7653;48.994;9.212;2023-04-24T05:19:41;9.90;84.40
15105;DHT22;7653;48.994;9.212;2023-04-24T05:22:06;9.90;85.50
15105;DHT22;7653;48.994;9.212;2023-04-24T05:24:36;9.90;83.70
15105;DHT22;7653;48.994;9.212;2023-04-24T05:27:04;9.90;85.90
15105;DHT22;7653;48.994;9.212;2023-04-24T05:29:31;10.00;81.70
15105;DHT22;7653;48.994;9.212;2023-04-24T05:31:57;10.00;81.40
15105;DHT22;7653;48.994;9.212;2023-04-24T05:34:23;10.10;78.50
15105;DHT22;7653;48.994;9.212;2023-04-24T05:36:49;10.10;75.00
15105;DHT22;7653;48.994;9.212;2023-04-24T05:39:15;10.10;75.40
15105;DHT22;7653;48.994;9.212;2023-04-24T05:41:41;10.10;75.10
15105;DHT22;7653;48.994;9.212;2023-04-24T05:44:07;10.10;74.50
15105;DHT22;7653;48.994;9.212;2023-04-24T05:46:32;10.10;76.10
15105;DHT22;7653;48.994;9.212;2023-04-24T05:48:58;10.10;74.10
15105;DHT22;7653;48.994;9.212;2023-04-24T05:51:24;10.00;74.20
15105;DHT22;7653;48.994;9.212;2023-04-24T05:53:49;10.10;76.10
15105;DHT22;7653;48.994;9.212;2023-04-24T05:56:16;10.00;74.40
15105;DHT22;7653;48.994;9.212;2023-04-24T05:58:41;10.00;75.30
15105;DHT22;7653;48.994;9.212;2023-04-24T06:01:07;10.00;74.10
15105;DHT22;7653;48.994;9.212;2023-04-24T06:03:33;10.10;71.50
15105;DHT22;7653;48.994;9.212;2023-04-24T06:05:58;10.20;71.40
15105;DHT22;7653;48.994;9.212;2023-04-24T06:08:24;10.20;69.70
15105;DHT22;7653;48.994;9.212;2023-04-24T06:10:50;10.30;69.80
15105;DHT22;7653;48.994;9.212;2023-04-24T06:13:16;10.50;65.70
15105;DHT22;7653;48.994;9.212;2023-04-24T06:15:43;10.50;65.80
15105;DHT22;7653;48.994;9.212;2023-04-24T06:18:08;10.40;63.40
15105;DHT22;7653;48.994;9.212;2023-04-24T06:20:35;10.60;66.70
15105;DHT22;7653;48.994;9.212;2023-04-24T06:23:01;10.70;62.20
15105;DHT22;7653;48.994;9.212;2023-04-24T06:25:28;10.90;61.50
15105;DHT22;7653;48.994;9.212;2023-04-24T06:27:54;10.90;61.50
15105;DHT22;7653;48.994;9.212;2023-04-24T06:30:20;11.00;62.70
15105;DHT22;7653;48.994;9.212;2023-04-24T06:32:45;10.90;62.10
15105;DHT22;7653;48.994;9.212;2023-04-24T06:35:11;10.90;62.80
15105;DHT22;7653;48.994;9.212;2023-04-24T06:37:39;11.00;65.60
15105;DHT22;7653;48.994;9.212;2023-04-24T06:40:06;11.00;60.80
15105;DHT22;7653;48.994;9.212;2023-04-24T06:42:32;11.00;61.40
15105;DHT22;7653;48.994;9.212;2023-04-24T06:44:57;11.00;56.50
15105;DHT22;7653;48.994;9.212;2023-04-24T06:47:23;11.10;57.40
15105;DHT22;7653;48.994;9.212;2023-04-24T06:49:48;11.00;58.00
15105;DHT22;7653;48.994;9.212;2023-04-24T06:52:16;11.10;54.30
15105;DHT22;7653;48.994;9.212;2023-04-24T06:54:42;11.20;57.40
15105;DHT22;7653;48.994;9.212;2023-04-24T06:57:08;11.30;55.00
15105;DHT22;7653;48.994;9.212;2023-04-24T06:59:34;11.50;54.30
15105;DHT22;7653;48.994;9.212;2023-04-24T07:02:00;11.80;52.00
15105;DHT22;7653;48.994;9.212;2023-04-24T07:04:25;11.80;53.90
15105;DHT22;7653;48.994;9.212;2023-04-24T07:06:51;11.90;50.10
15105;DHT22;7653;48.994;9.212;2023-04-24T07:09:19;11.70;46.90
15105;DHT22;7653;48.994;9.212;2023-04-24T07:11:45;11.80;48.00
15105;DHT22;7653;48.994;9.212;2023-04-24T07:14:11;12.00;45.50
15105;DHT22;7653;48.994;9.212;2023-04-24T07:16:37;11.90;46.90
15105;DHT22;7653;48.994;9.212;2023-04-24T07:19:03;12.10;45.10
15105;DHT22;7653;48.994;9.212;2023-04-24T07:21:29;12.20;42.60
15105;DHT22;7653;48.994;9.212;2023-04-24T07:23:56;12.00;40.00
15105;DHT22;7653;48.994;9.212;2023-04-24T07:26:22;11.80;37.40
15105;DHT22;7653;48.994;9.212;2023-04-24T07:28:47;11.80;39.00
15105;DHT22;7653;48.994;9.212;2023-04-24T07:31:13;12.00;38.30
15105;DHT22;7653;48.994;9.212;2023-04-24T07:33:39;12.30;39.90
15105;DHT22;7653;48.994;9.212;2023-04-24T07:36:04;12.10;35.50
15105;DHT22;7653;48.994;9.212;2023-04-24T07:38:30;11.90;31.00
15105;DHT22;7653;48.994;9.212;2023-04-24T07:40:56;11.90;32.40
15105;DHT22;7653;48.994;9.212;2023-04-24T07:43:22;12.00;32.40
15105;DHT22;7653;48.994;9.212;2023-04-24T07:45:52;12.10;33.10
15105;DHT22;7653;48.994;9.212;2023-04-24T07:48:18;12.20;32.60
15105;DHT22;7653;48.994;9.212;2023-04-24T07:50:45;12.20;32.60
15105;DHT22;7653;48.994;9.212;2023-04-24T07:53:10;11.90;31.60
15105;DHT22;7653;48.994;9.212;2023-04-24T07:55:36;11.90;33.20
15105;DHT22;7653;48.994;9.212;2023-04-24T07:58:02;11.90;28.60
15105;DHT22;7653;48.994;9.212;2023-04-24T08:00:28;11.80;29.70
15105;DHT22;7653;48.994;9.212;2023-04-24T08:02:53;11.80;28.60
15105;DHT22;7653;48.994;9.212;2023-04-24T08:05:19;11.70;29.90
15105;DHT22;7653;48.994;9.212;2023-04-24T08:07:46;11.80;29.80
15105;DHT22;7653;48.994;9.212;2023-04-24T08:10:14;11.90;27.90
15105;DHT22;7653;48.994;9.212;2023-04-24T08:12:40;11.80;26.90
15105;DHT22;7653;48.994;9.212;2023-04-24T08:15:06;11.90;25.60
15105;DHT22;7653;48.994;9.212;2023-04-24T08:17:33;11.80;24.90
15105;DHT22;7653;48.994;9.212;2023-04-24T08:19:59;11.80;26.50
15105;DHT22;7653;48.994;9.212;2023-04-24T08:22:27;12.00;26.60
15105;DHT22;7653;48.994;9.212;2023-04-24T08:24:54;11.90;26.60
15105;DHT22;7653;48.994;9.212;2023-04-24T08:27:19;11.80;26.40
15105;DHT22;7653;48.994;9.212;2023-04-24T08:29:45;11.90;26.50
15105;DHT22;7653;48.994;9.212;2023-04-24T08:32:11;12.20;26.90
15105;DHT22;7653;48.994;9.212;2023-04-24T08:34:36;12.30;24.20
15105;DHT22;7653;48.994;9.212;2023-04-24T08:37:02;12.30;24.60
15105;DHT22;7653;48.994;9.212;2023-04-24T08:39:28;12.00;24.50
15105;DHT22;7653;48.994;9.212;2023-04-24T08:41:55;12.20;25.30
15105;DHT22;7653;48.994;9.212;2023-04-24T08:44:21;12.50;24.20
15105;DHT22;7653;48.994;9.212;2023-04-24T08:46:48;12.50;24.20
15105;DHT22;7653;48.994;9.212;2023-04-24T08:49:14;12.40;24.20
15105;DHT22;7653;48.994;9.212;2023-04-24T08:51:44;12.50;24.20
15105;DHT22;7653;48.994;9.212;2023-04-24T08:54:12;12.50;24.30
15105;DHT22;7653;48.994;9.212;2023-04-24T08:56:38;12.60;24.30
15105;DHT22;7653;48.994;9.212;2023-04-24T08:59:06;12.10;24.00
15105;DHT22;7653;48.994;9.212;2023-04-24T09:01:32;11.80;24.60
15105;DHT22;7653;48.994;9.212;2023-04-24T09:04:04;11.60;26.30
15105;DHT22;7653;48.994;9.212;2023-04-24T09:06:31;11.60;27.00
15105;DHT22;7653;48.994;9.212;2023-04-24T09:09:00;11.60;27.60
15105;DHT22;7653;48.994;9.212;2023-04-24T09:11:27;11.80;28.10
15105;DHT22;7653;48.994;9.212;2023-04-24T09:13:54;11.90;26.50
15105;DHT22;7653;48.994;9.212;2023-04-24T09:16:20;11.90;25.10
15105;DHT22;7653;48.994;9.212;2023-04-24T09:18:46;12.00;25.60
15105;DHT22;7653;48.994;9.212;2023-04-24T09:21:12;12.40;24.20
15105;DHT22;7653;48.994;9.212;2023-04-24T09:23:38;12.80;24.40
15105;DHT22;7653;48.994;9.212;2023-04-24T09:26:04;12.70;24.40
15105;DHT22;7653;48.994;9.212;2023-04-24T09:28:39;12.60;24.30
15105;DHT22;7653;48.994;9.212;2023-04-24T09:33:32;12.80;24.50
15105;DHT22;7653;48.994;9.212;2023-04-24T09:35:57;12.80;25.00
15105;DHT22;7653;48.994;9.212;2023-04-24T09:38:42;12.30;24.20
15105;DHT22;7653;48.994;9.212;2023-04-24T09:41:08;12.10;26.20
15105;DHT22;7653;48.994;9.212;2023-04-24T09:43:38;12.10;26.80
15105;DHT22;7653;48.994;9.212;2023-04-24T09:46:06;12.10;27.00
15105;DHT22;7653;48.994;9.212;2023-04-24T09:48:33;12.10;26.10
15105;DHT22;7653;48.994;9.212;2023-04-24T09:50:59;12.10;26.70
15105;DHT22;7653;48.994;9.212;2023-04-24T09:53:27;11.90;26.80
15105;DHT22;7653;48.994;9.212;2023-04-24T09:55:53;11.90;25.90
15105;DHT22;7653;48.994;9.212;2023-04-24T09:58:26;11.90;26.40
15105;DHT22;7653;48.994;9.212;2023-04-24T10:00:57;12.30;25.30
15105;DHT22;7653;48.994;9.212;2023-04-24T10:03:26;12.10;24.60
15105;DHT22;7653;48.994;9.212;2023-04-24T10:06:01;12.50;24.20
15105;DHT22;7653;48.994;9.212;2023-04-24T10:08:34;12.60;23.40
15105;DHT22;7653;48.994;9.212;2023-04-24T10:11:00;12.60;24.10
15105;DHT22;7653;48.994;9.212;2023-04-24T10:13:26;12.50;23.00
15105;DHT22;7653;48.994;9.212;2023-04-24T10:15:53;12.90;23.20
15105;DHT22;7653;48.994;9.212;2023-04-24T10:18:20;13.30;22.40
15105;DHT22;7653;48.994;9.212;2023-04-24T10:20:47;12.90;22.20
15105;DHT22;7653;48.994;9.212;2023-04-24T10:23:14;12.60;23.10
15105;DHT22;7653;48.994;9.212;2023-04-24T10:25:40;12.60;22.80
15105;DHT22;7653;48.994;9.212;2023-04-24T10:28:06;12.40;22.00
15105;DHT22;7653;48.994;9.212;2023-04-24T10:30:33;12.20;22.50
15105;DHT22;7653;48.994;9.212;2023-04-24T10:33:04;12.10;22.60
15105;DHT22;7653;48.994;9.212;2023-04-24T10:35:31;12.40;22.00
15105;DHT22;7653;48.994;9.212;2023-04-24T10:38:12;12.30;22.90
15105;DHT22;7653;48.994;9.212;2023-04-24T10:40:38;12.50;22.80
15105;DHT22;7653;48.994;9.212;2023-04-24T10:43:06;12.30;23.70
15105;DHT22;7653;48.994;9.212;2023-04-24T10:45:33;12.10;23.20
15105;DHT22;7653;48.994;9.212;2023-04-24T10:48:01;12.40;22.90
15105;DHT22;7653;48.994;9.212;2023-04-24T10:50:28;12.70;22.80
15105;DHT22;7653;48.994;9.212;2023-04-24T10:53:05;12.50;23.20
15105;DHT22;7653;48.994;9.212;2023-04-24T10:55:48;12.80;22.90
15105;DHT22;7653;48.994;9.212;2023-04-24T10:58:14;13.00;22.70
15105;DHT22;7653;48.994;9.212;2023-04-24T11:00:42;12.80;21.80
15105;DHT22;7653;48.994;9.212;2023-04-24T11:03:25;12.60;22.30
15105;DHT22;7653;48.994;9.212;2023-04-24T11:08:51;12.30;22.60
15105;DHT22;7653;48.994;9.212;2023-04-24T11:11:17;12.70;23.10
15105;DHT22;7653;48.994;9.212;2023-04-24T11:21:53;13.10;21.40
15105;DHT22;7653;48.994;9.212;2023-04-24T11:27:20;12.70;21.80
15105;DHT22;7653;48.994;9.212;2023-04-24T11:37:27;12.30;22.50
15105;DHT22;7653;48.994;9.212;2023-04-24T11:39:57;12.20;22.30
15105;DHT22;7653;48.994;9.212;2023-04-24T11:42:23;12.40;22.70
15105;DHT22;7653;48.994;9.212;2023-04-24T11:44:52;12.30;22.20
15105;DHT22;7653;48.994;9.212;2023-04-24T11:47:18;12.30;22.90
15105;DHT22;7653;48.994;9.212;2023-04-24T11:49:44;12.60;22.40
15105;DHT22;7653;48.994;9.212;2023-04-24T11:52:09;12.80;22.10
15105;DHT22;7653;48.994;9.212;2023-04-24T11:54:36;12.60;21.70
15105;DHT22;7653;48.994;9.212;2023-04-24T11:57:05;12.70;22.50
15105;DHT22;7653;48.994;9.212;2023-04-24T11:59:36;13.10;21.30
15105;DHT22;7653;48.994;9.212;2023-04-24T12:02:02;12.90;19.90
15105;DHT22;7653;48.994;9.212;2023-04-24T12:04:39;12.70;21.00
15105;DHT22;7653;48.994;9.212;2023-04-24T12:07:05;12.80;21.40
15105;DHT22;7653;48.994;9.212;2023-04-24T12:09:49;12.50;21.40
15105;DHT22;7653;48.994;9.212;2023-04-24T12:12:16;12.20;23.30
15105;DHT22;7653;48.994;9.212;2023-04-24T12:14:49;12.40;23.20
15105;DHT22;7653;48.994;9.212;2023-04-24T12:17:30;12.60;24.30
15105;DHT22;7653;48.994;9.212;2023-04-24T12:20:06;12.70;22.50
15105;DHT22;7653;48.994;9.212;2023-04-24T12:22:50;12.90;22.10
15105;DHT22;7653;48.994;9.212;2023-04-24T12:25:17;13.10;22.10
15105;DHT22;7653;48.994;9.212;2023-04-24T12:27:44;12.80;22.40
15105;DHT22;7653;48.994;9.212;2023-04-24T12:30:12;12.80;22.60
15105;DHT22;7653;48.994;9.212;2023-04-24T12:32:47;12.60;24.00
15105;DHT22;7653;48.994;9.212;2023-04-24T12:35:14;12.40;26.10
15105;DHT22;7653;48.994;9.212;2023-04-24T12:37:44;12.30;28.10
15105;DHT22;7653;48.994;9.212;2023-04-24T12:40:11;11.50;33.70
15105;DHT22;7653;48.994;9.212;2023-04-24T12:42:57;10.90;42.70
15105;DHT22;7653;48.994;9.212;2023-04-24T12:45:23;10.70;46.80
15105;DHT22;7653;48.994;9.212;2023-04-24T12:47:50;10.50;45.20
15105;DHT22;7653;48.994;9.212;2023-04-24T12:50:16;10.70;49.10
15105;DHT22;7653;48.994;9.212;2023-04-24T12:52:43;10.70;45.50
15105;DHT22;7653;48.994;9.212;2023-04-24T12:55:09;10.50;46.00
15105;DHT22;7653;48.994;9.212;2023-04-24T12:57:37;10.50;47.60
15105;DHT22;7653;48.994;9.212;2023-04-24T13:00:03;10.60;43.70
15105;DHT22;7653;48.994;9.212;2023-04-24T13:02:30;10.90;44.90
15105;DHT22;7653;48.994;9.212;2023-04-24T13:05:00;11.30;41.80
15105;DHT22;7653;48.994;9.212;2023-04-24T13:07:26;11.30;40.00
15105;DHT22;7653;48.994;9.212;2023-04-24T13:09:54;11.60;40.40
15105;DHT22;7653;48.994;9.212;2023-04-24T13:12:20;12.20;37.70
15105;DHT22;7653;48.994;9.212;2023-04-24T13:14:46;12.50;34.80
15105;DHT22;7653;48.994;9.212;2023-04-24T13:17:12;12.80;33.10
15105;DHT22;7653;48.994;9.212;2023-04-24T13:19:43;12.80;32.10
15105;DHT22;7653;48.994;9.212;2023-04-24T13:22:10;13.10;30.00
15105;DHT22;7653;48.994;9.212;2023-04-24T13:24:36;13.80;29.20
15105;DHT22;7653;48.994;9.212;2023-04-24T13:27:03;13.90;25.90
15105;DHT22;7653;48.994;9.212;2023-04-24T13:29:28;14.10;25.40
15105;DHT22;7653;48.994;9.212;2023-04-24T13:31:54;14.10;25.40
15105;DHT22;7653;48.994;9.212;2023-04-24T13:34:21;14.40;22.90
15105;DHT22;7653;48.994;9.212;2023-04-24T13:36:47;14.30;22.40
15105;DHT22;7653;48.994;9.212;2023-04-24T13:39:13;13.80;22.70
15105;DHT22;7653;48.994;9.212;2023-04-24T13:41:39;13.80;23.20
15105;DHT22;7653;48.994;9.212;2023-04-24T13:44:06;14.00;21.90
15105;DHT22;7653;48.994;9.212;2023-04-24T13:46:31;13.80;20.70
15105;DHT22;7653;48.994;9.212;2023-04-24T13:48:57;14.00;19.80
15105;DHT22;7653;48.994;9.212;2023-04-24T13:51:25;13.60;20.90
15105;DHT22;7653;48.994;9.212;2023-04-24T13:53:53;13.80;21.00
15105;DHT22;7653;48.994;9.212;2023-04-24T13:56:18;14.90;20.20
15105;DHT22;7653;48.994;9.212;2023-04-24T13:58:44;15.20;17.90
15105;DHT22;7653;48.994;9.212;2023-04-24T14:01:10;14.80;19.80
15105;DHT22;7653;48.994;9.212;2023-04-24T14:03:37;15.20;17.90
15105;DHT22;7653;48.994;9.212;2023-04-24T14:06:03;15.70;16.60
15105;DHT22;7653;48.994;9.212;2023-04-24T14:08:28;15.20;16.90
15105;DHT22;7653;48.994;9.212;2023-04-24T14:10:54;14.90;17.70
15105;DHT22;7653;48.994;9.212;2023-04-24T14:13:20;14.80;17.60
15105;DHT22;7653;48.994;9.212;2023-04-24T14:15:46;14.10;18.30
15105;DHT22;7653;48.994;9.212;2023-04-24T14:18:11;13.90;18.80
15105;DHT22;7653;48.994;9.212;2023-04-24T14:20:37;13.80;19.40
15105;DHT22;7653;48.994;9.212;2023-04-24T14:23:03;13.60;20.00
15105;DHT22;7653;48.994;9.212;2023-04-24T14:25:29;13.40;20.80
15105;DHT22;7653;48.994;9.212;2023-04-24T14:27:55;12.90;24.50
15105;DHT22;7653;48.994;9.212;2023-04-24T14:30:21;12.00;28.00
15105;DHT22;7653;48.994;9.212;2023-04-24T14:32:48;11.80;29.50
15105;DHT22;7653;48.994;9.212;2023-04-24T14:35:13;12.30;33.60
15105;DHT22;7653;48.994;9.212;2023-04-24T14:37:40;13.70;27.90
15105;DHT22;7653;48.994;9.212;2023-04-24T14:40:07;14.60;24.30
15105;DHT22;7653;48.994;9.212;2023-04-24T14:42:33;15.40;24.70
15105;DHT22;7653;48.994;9.212;2023-04-24T14:44:59;15.60;21.50
15105;DHT22;7653;48.994;9.212;2023-04-24T14:47:25;16.40;20.50
15105;DHT22;7653;48.994;9.212;2023-04-24T14:49:51;16.00;18.40
15105;DHT22;7653;48.994;9.212;2023-04-24T14:52:16;15.20;19.30
15105;DHT22;7653;48.994;9.212;2023-04-24T14:54:42;15.60;20.20
15105;DHT22;7653;48.994;9.212;2023-04-24T14:57:08;15.30;19.40
15105;DHT22;7653;48.994;9.212;2023-04-24T14:59:34;14.40;18.80
15105;DHT22;7653;48.994;9.212;2023-04-24T15:01:59;14.00;20.10
15105;DHT22;7653;48.994;9.212;2023-04-24T15:04:25;14.00;19.70
15105;DHT22;7653;48.994;9.212;2023-04-24T15:06:55;13.90;19.90
15105;DHT22;7653;48.994;9.212;2023-04-24T15:09:24;13.90;19.90
15105;DHT22;7653;48.994;9.212;2023-04-24T15:11:51;14.40;19.50
15105;DHT22;7653;48.994;9.212;2023-04-24T15:14:18;14.20;18.80
15105;DHT22;7653;48.994;9.212;2023-04-24T15:16:44;14.50;18.50
15105;DHT22;7653;48.994;9.212;2023-04-24T15:19:10;14.50;19.40
15105;DHT22;7653;48.994;9.212;2023-04-24T15:21:36;14.00;18.40
15105;DHT22;7653;48.994;9.212;2023-04-24T15:24:03;13.70;17.80
15105;DHT22;7653;48.994;9.212;2023-04-24T15:26:29;13.60;19.20
15105;DHT22;7653;48.994;9.212;2023-04-24T15:28:55;13.50;18.50
15105;DHT22;7653;48.994;9.212;2023-04-24T15:31:20;13.50;18.70
15105;DHT22;7653;48.994;9.212;2023-04-24T15:33:48;13.40;18.90
15105;DHT22;7653;48.994;9.212;2023-04-24T15:36:15;13.30;19.30
15105;DHT22;7653;48.994;9.212;2023-04-24T15:38:42;13.40;20.10
15105;DHT22;7653;48.994;9.212;2023-04-24T15:41:08;14.30;18.50
15105;DHT22;7653;48.994;9.212;2023-04-24T15:43:33;14.80;17.60
15105;DHT22;7653;48.994;9.212;2023-04-24T15:46:00;15.50;16.40
15105;DHT22;7653;48.994;9.212;2023-04-24T15:48:27;15.80;16.40
15105;DHT22;7653;48.994;9.212;2023-04-24T15:50:53;15.60;16.10
15105;DHT22;7653;48.994;9.212;2023-04-24T15:53:18;15.50;17.00
15105;DHT22;7653;48.994;9.212;2023-04-24T15:55:50;15.20;17.50
15105;DHT22;7653;48.994;9.212;2023-04-24T15:58:18;15.10;17.80
15105;DHT22;7653;48.994;9.212;2023-04-24T16:00:44;15.40;16.20
15105;DHT22;7653;48.994;9.212;2023-04-24T16:03:12;14.90;16.10
15105;DHT22;7653;48.994;9.212;2023-04-24T16:05:38;14.50;17.40
15105;DHT22;7653;48.994;9.212;2023-04-24T16:08:04;14.60;18.70